sensor_id;sensor_type;location;lat;lon;timestamp;temperature;humidity
27224;DHT22;14965;50.660;13.226;2022-11-20T00:01:06;-7.00;99.90
27224;DHT22;14965;50.660;13.226;2022-11-20T00:04:10;-6.90;99.90
27224;DHT22;14965;50.660;13.226;2022-11-20T00:07:18;-6.90;99.90
27224;DHT22;14965;50.660;13.226;2022-11-20T00:10:36;-7.00;99.90
27224;DHT22;14965;50.660;13.226;2022-11-20T00:13:40;-6.80;99.90
27224;DHT22;14965;50.660;13.226;2022-11-20T00:17:21;-6.70;99.90
27224;DHT22;14965;50.660;13.226;2022-11-20T00:21:10;-6.60;99.90
27224;DHT22;14965;50.660;13.226;2022-11-20T00:25:03;-6.70;99.90
27224;DHT22;14965;50.660;13.226;2022-11-20T00:28:20;-6.70;99.90
27224;DHT22;14965;50.660;13.226;2022-11-20T00:31:15;-6.80;99.90
27224;DHT22;14965;50.660;13.226;2022-11-20T00:34:15;-6.90;99.90
27224;DHT22;14965;50.660;13.226;2022-11-20T00:37:48;-6.90;99.90
27224;DHT22;14965;50.660;13.226;2022-11-20T00:41:16;-7.10;99.90
27224;DHT22;14965;50.660;13.226;2022-11-20T00:44:04;-7.10;99.90
27224;DHT22;14965;50.660;13.226;2022-11-20T00:47:41;-7.10;99.90
27224;DHT22;14965;50.660;13.226;2022-11-20T00:54:45;-7.10;99.90
27224;DHT22;14965;50.660;13.226;2022-11-20T01:05:55;-7.10;99.90
27224;DHT22;14965;50.660;13.226;2022-11-20T01:09:12;-7.20;99.90
27224;DHT22;14965;50.660;13.226;2022-11-20T01:12:45;-7.10;99.90
27224;DHT22;14965;50.660;13.226;2022-11-20T01:15:41;-7.10;99.90
27224;DHT22;14965;50.660;13.226;2022-11-20T01:26:39;-7.20;99.90
27224;DHT22;14965;50.660;13.226;2022-11-20T01:30:09;-7.20;99.90
27224;DHT22;14965;50.660;13.226;2022-11-20T01:33:58;-7.20;99.90
27224;DHT22;14965;50.660;13.226;2022-11-20T01:40:19;-7.20;99.90
27224;DHT22;14965;50.660;13.226;2022-11-20T01:41:22;-7.30;99.90
27224;DHT22;14965;50.660;13.226;2022-11-20T01:52:20;-7.40;99.90
27224;DHT22;14965;50.660;13.226;2022-11-20T02:02:51;-7.30;99.90
27224;DHT22;14965;50.660;13.226;2022-11-20T02:06:40;-7.30;99.90
27224;DHT22;14965;50.660;13.226;2022-11-20T02:14:15;-7.30;99.90
27224;DHT22;14965;50.660;13.226;2022-11-20T02:22:37;-7.20;99.90
27224;DHT22;14965;50.660;13.226;2022-11-20T02:25:18;-7.20;99.90
27224;DHT22;14965;50.660;13.226;2022-11-20T02:28:43;-7.20;99.90
27224;DHT22;14965;50.660;13.226;2022-11-20T02:31:44;-7.30;99.90
27224;DHT22;14965;50.660;13.226;2022-11-20T02:43:23;-7.50;99.90
27224;DHT22;14965;50.660;13.226;2022-11-20T02:47:12;-7.50;99.90
27224;DHT22;14965;50.660;13.226;2022-11-20T02:50:47;-7.60;99.90
27224;DHT22;14965;50.660;13.226;2022-11-20T03:09:34;-7.20;99.90
27224;DHT22;14965;50.660;13.226;2022-11-20T03:31:40;-7.30;99.90
27224;DHT22;14965;50.660;13.226;2022-11-20T03:43:17;-7.40;99.90
27224;DHT22;14965;50.660;13.226;2022-11-20T03:54:58;-7.40;99.90
27224;DHT22;14965;50.660;13.226;2022-11-20T04:08:45;-7.40;99.90
27224;DHT22;14965;50.660;13.226;2022-11-20T04:12:03;-7.50;99.90
27224;DHT22;14965;50.660;13.226;2022-11-20T04:14:29;-7.40;99.90
27224;DHT22;14965;50.660;13.226;2022-11-20T04:16:55;-7.40;99.90
27224;DHT22;14965;50.660;13.226;2022-11-20T04:19:21;-7.30;99.90
27224;DHT22;14965;50.660;13.226;2022-11-20T04:22:00;-7.30;99.90
27224;DHT22;14965;50.660;13.226;2022-11-20T04:25:33;-7.40;99.90
27224;DHT22;14965;50.660;13.226;2022-11-20T04:33:22;-7.40;99.90
27224;DHT22;14965;50.660;13.226;2022-11-20T04:43:38;-7.30;99.90
27224;DHT22;14965;50.660;13.226;2022-11-20T04:52:40;-7.50;99.90
27224;DHT22;14965;50.660;13.226;2022-11-20T04:55:06;-7.40;99.90
27224;DHT22;14965;50.660;13.226;2022-11-20T04:57:42;-7.40;99.90
27224;DHT22;14965;50.660;13.226;2022-11-20T05:05:00;-7.30;99.90
27224;DHT22;14965;50.660;13.226;2022-11-20T05:08:23;-7.30;99.90
27224;DHT22;14965;50.660;13.226;2022-11-20T06:02:55;-6.90;99.90
27224;DHT22;14965;50.660;13.226;2022-11-20T06:13:37;-6.70;99.90
27224;DHT22;14965;50.660;13.226;2022-11-20T06:17:00;-6.70;99.90
27224;DHT22;14965;50.660;13.226;2022-11-20T06:49:17;-6.80;99.90
27224;DHT22;14965;50.660;13.226;2022-11-20T06:51:43;-6.80;99.90
27224;DHT22;14965;50.660;13.226;2022-11-20T06:54:09;-6.90;99.90
27224;DHT22;14965;50.660;13.226;2022-11-20T06:56:35;-6.90;99.90
27224;DHT22;14965;50.660;13.226;2022-11-20T06:59:04;-7.20;99.90
27224;DHT22;14965;50.660;13.226;2022-11-20T07:01:30;-7.20;99.90
27224;DHT22;14965;50.660;13.226;2022-11-20T07:04:03;-7.20;99.90
27224;DHT22;14965;50.660;13.226;2022-11-20T07:33:01;-6.00;99.90
27224;DHT22;14965;50.660;13.226;2022-11-20T07:42:28;-5.80;99.90
27224;DHT22;14965;50.660;13.226;2022-11-20T07:45:12;-5.80;99.90
27224;DHT22;14965;50.660;13.226;2022-11-20T07:47:47;-5.70;99.90
27224;DHT22;14965;50.660;13.226;2022-11-20T07:50:21;-5.60;99.90
27224;DHT22;14965;50.660;13.226;2022-11-20T07:52:50;-5.50;99.90
27224;DHT22;14965;50.660;13.226;2022-11-20T07:55:25;-5.40;99.90
27224;DHT22;14965;50.660;13.226;2022-11-20T07:57:54;-5.40;99.90
27224;DHT22;14965;50.660;13.226;2022-11-20T08:00:23;-5.30;99.90
27224;DHT22;14965;50.660;13.226;2022-11-20T08:02:49;-5.20;99.90
27224;DHT22;14965;50.660;13.226;2022-11-20T08:05:15;-5.20;99.90
27224;DHT22;14965;50.660;13.226;2022-11-20T08:07:43;-5.10;99.90
27224;DHT22;14965;50.660;13.226;2022-11-20T08:10:15;-5.00;99.90
27224;DHT22;14965;50.660;13.226;2022-11-20T08:12:44;-5.00;99.90
27224;DHT22;14965;50.660;13.226;2022-11-20T08:15:11;-4.90;99.90
27224;DHT22;14965;50.660;13.226;2022-11-20T08:17:37;-4.80;99.90
27224;DHT22;14965;50.660;13.226;2022-11-20T08:20:11;-4.70;99.90
27224;DHT22;14965;50.660;13.226;2022-11-20T08:22:44;-4.60;99.90
27224;DHT22;14965;50.660;13.226;2022-11-20T08:25:10;-4.40;99.90
27224;DHT22;14965;50.660;13.226;2022-11-20T08:27:44;-4.30;99.90
27224;DHT22;14965;50.660;13.226;2022-11-20T08:30:24;-4.20;99.90
27224;DHT22;14965;50.660;13.226;2022-11-20T08:33:06;-4.20;99.90
27224;DHT22;14965;50.660;13.226;2022-11-20T08:35:36;-4.00;99.90
27224;DHT22;14965;50.660;13.226;2022-11-20T08:38:05;-3.80;99.90
27224;DHT22;14965;50.660;13.226;2022-11-20T08:40:34;-3.60;99.90
27224;DHT22;14965;50.660;13.226;2022-11-20T08:43:03;-3.50;99.90
27224;DHT22;14965;50.660;13.226;2022-11-20T08:45:29;-3.30;99.90
27224;DHT22;14965;50.660;13.226;2022-11-20T08:48:00;-3.10;99.90
27224;DHT22;14965;50.660;13.226;2022-11-20T08:50:28;-3.00;99.90
27224;DHT22;14965;50.660;13.226;2022-11-20T08:52:55;-3.00;99.90
27224;DHT22;14965;50.660;13.226;2022-11-20T08:55:29;-2.80;99.90
27224;DHT22;14965;50.660;13.226;2022-11-20T08:57:55;-2.60;99.90
27224;DHT22;14965;50.660;13.226;2022-11-20T09:00:24;-2.50;99.90
27224;DHT22;14965;50.660;13.226;2022-11-20T09:02:50;-2.40;99.90
27224;DHT22;14965;50.660;13.226;2022-11-20T09:05:16;-2.30;99.90
27224;DHT22;14965;50.660;13.226;2022-11-20T09:07:49;-2.30;99.90
27224;DHT22;14965;50.660;13.226;2022-11-20T09:10:22;-2.10;99.90
27224;DHT22;14965;50.660;13.226;2022-11-20T09:12:48;-1.90;99.90
27224;DHT22;14965;50.660;13.226;2022-11-20T09:15:19;-1.80;99.90
27224;DHT22;14965;50.660;13.226;2022-11-20T09:17:50;-1.60;99.90
27224;DHT22;14965;50.660;13.226;2022-11-20T09:20:20;-1.50;99.90
27224;DHT22;14965;50.660;13.226;2022-11-20T09:22:55;-1.40;99.90
27224;DHT22;14965;50.660;13.226;2022-11-20T09:25:23;-1.20;99.90
27224;DHT22;14965;50.660;13.226;2022-11-20T09:27:55;-1.20;99.90
27224;DHT22;14965;50.660;13.226;2022-11-20T09:30:24;-1.10;99.90
27224;DHT22;14965;50.660;13.226;2022-11-20T09:32:54;-0.90;99.90
27224;DHT22;14965;50.660;13.226;2022-11-20T09:35:20;-0.90;99.90
27224;DHT22;14965;50.660;13.226;2022-11-20T09:37:46;-0.80;99.90
27224;DHT22;14965;50.660;13.226;2022-11-20T09:40:19;-0.80;99.90
27224;DHT22;14965;50.660;13.226;2022-11-20T09:42:54;-0.70;99.90
27224;DHT22;14965;50.660;13.226;2022-11-20T09:45:32;-0.60;99.90
27224;DHT22;14965;50.660;13.226;2022-11-20T09:48:27;-0.50;99.90
27224;DHT22;14965;50.660;13.226;2022-11-20T09:51:05;-0.50;99.90
27224;DHT22;14965;50.660;13.226;2022-11-20T09:53:47;-0.50;99.90
27224;DHT22;14965;50.660;13.226;2022-11-20T09:56:23;-0.50;99.90
27224;DHT22;14965;50.660;13.226;2022-11-20T09:58:55;-0.40;99.90
27224;DHT22;14965;50.660;13.226;2022-11-20T10:01:29;-0.30;99.90
27224;DHT22;14965;50.660;13.226;2022-11-20T10:04:04;-0.10;99.90
27224;DHT22;14965;50.660;13.226;2022-11-20T10:06:33;-0.10;99.90
27224;DHT22;14965;50.660;13.226;2022-11-20T10:09:17;0.10;99.90
27224;DHT22;14965;50.660;13.226;2022-11-20T10:11:51;0.00;99.90
27224;DHT22;14965;50.660;13.226;2022-11-20T10:14:38;0.00;99.90
27224;DHT22;14965;50.660;13.226;2022-11-20T10:17:22;0.00;99.90
27224;DHT22;14965;50.660;13.226;2022-11-20T10:20:14;0.10;99.90
27224;DHT22;14965;50.660;13.226;2022-11-20T10:23:06;0.20;99.90
27224;DHT22;14965;50.660;13.226;2022-11-20T10:25:53;0.30;99.90
27224;DHT22;14965;50.660;13.226;2022-11-20T10:28:40;0.30;99.90
27224;DHT22;14965;50.660;13.226;2022-11-20T10:31:30;0.30;99.90
27224;DHT22;14965;50.660;13.226;2022-11-20T10:34:01;0.40;99.90
27224;DHT22;14965;50.660;13.226;2022-11-20T10:36:34;0.40;99.90
27224;DHT22;14965;50.660;13.226;2022-11-20T10:39:18;0.40;99.90
27224;DHT22;14965;50.660;13.226;2022-11-20T10:41:52;0.30;99.90
27224;DHT22;14965;50.660;13.226;2022-11-20T10:44:20;0.30;99.90
27224;DHT22;14965;50.660;13.226;2022-11-20T10:46:50;0.20;99.90
27224;DHT22;14965;50.660;13.226;2022-11-20T10:49:18;0.10;99.90
27224;DHT22;14965;50.660;13.226;2022-11-20T10:51:55;0.10;99.90
27224;DHT22;14965;50.660;13.226;2022-11-20T10:54:35;0.20;99.90
27224;DHT22;14965;50.660;13.226;2022-11-20T10:57:18;0.20;99.90
27224;DHT22;14965;50.660;13.226;2022-11-20T11:00:04;0.20;99.90
27224;DHT22;14965;50.660;13.226;2022-11-20T11:02:37;0.20;99.90
27224;DHT22;14965;50.660;13.226;2022-11-20T11:05:17;0.30;99.90
27224;DHT22;14965;50.660;13.226;2022-11-20T11:07:50;0.40;99.90
27224;DHT22;14965;50.660;13.226;2022-11-20T11:10:23;0.50;99.90
27224;DHT22;14965;50.660;13.226;2022-11-20T11:12:53;0.60;99.90
27224;DHT22;14965;50.660;13.226;2022-11-20T11:15:26;0.60;99.90
27224;DHT22;14965;50.660;13.226;2022-11-20T11:17:55;0.60;99.90
27224;DHT22;14965;50.660;13.226;2022-11-20T11:20:23;0.60;99.90
27224;DHT22;14965;50.660;13.226;2022-11-20T11:22:53;0.70;99.90
27224;DHT22;14965;50.660;13.226;2022-11-20T11:25:23;0.70;99.90
27224;DHT22;14965;50.660;13.226;2022-11-20T11:27:55;0.70;99.90
27224;DHT22;14965;50.660;13.226;2022-11-20T11:30:24;0.70;99.90
27224;DHT22;14965;50.660;13.226;2022-11-20T11:33:04;0.80;99.90
27224;DHT22;14965;50.660;13.226;2022-11-20T11:35:31;0.70;99.90
27224;DHT22;14965;50.660;13.226;2022-11-20T11:38:04;0.80;99.90
27224;DHT22;14965;50.660;13.226;2022-11-20T11:40:33;0.80;99.90
27224;DHT22;14965;50.660;13.226;2022-11-20T11:43:05;0.80;99.90
27224;DHT22;14965;50.660;13.226;2022-11-20T11:45:32;0.70;99.90
27224;DHT22;14965;50.660;13.226;2022-11-20T11:48:00;0.70;99.90
27224;DHT22;14965;50.660;13.226;2022-11-20T11:50:34;0.70;99.90
27224;DHT22;14965;50.660;13.226;2022-11-20T11:53:09;0.60;99.90
27224;DHT22;14965;50.660;13.226;2022-11-20T11:55:43;0.60;99.90
27224;DHT22;14965;50.660;13.226;2022-11-20T11:58:21;0.60;99.90
27224;DHT22;14965;50.660;13.226;2022-11-20T12:01:03;0.50;99.90
27224;DHT22;14965;50.660;13.226;2022-11-20T12:03:38;0.50;99.90
27224;DHT22;14965;50.660;13.226;2022-11-20T12:06:10;0.50;99.90
27224;DHT22;14965;50.660;13.226;2022-11-20T12:08:44;0.50;99.90
27224;DHT22;14965;50.660;13.226;2022-11-20T12:11:19;0.50;99.90
27224;DHT22;14965;50.660;13.226;2022-11-20T12:13:54;0.40;99.90
27224;DHT22;14965;50.660;13.226;2022-11-20T12:16:24;0.40;99.90
27224;DHT22;14965;50.660;13.226;2022-11-20T12:18:52;0.50;99.90
27224;DHT22;14965;50.660;13.226;2022-11-20T12:21:21;0.50;99.90
27224;DHT22;14965;50.660;13.226;2022-11-20T12:24:06;0.50;99.90
27224;DHT22;14965;50.660;13.226;2022-11-20T12:26:48;0.50;99.90
27224;DHT22;14965;50.660;13.226;2022-11-20T12:29:33;0.60;99.90
27224;DHT22;14965;50.660;13.226;2022-11-20T12:32:32;0.60;99.90
27224;DHT22;14965;50.660;13.226;2022-11-20T12:35:28;0.50;99.90
27224;DHT22;14965;50.660;13.226;2022-11-20T12:38:29;0.50;99.90
27224;DHT22;14965;50.660;13.226;2022-11-20T12:41:07;0.50;99.90
27224;DHT22;14965;50.660;13.226;2022-11-20T12:43:48;0.50;99.90
27224;DHT22;14965;50.660;13.226;2022-11-20T12:46:29;0.50;99.90
27224;DHT22;14965;50.660;13.226;2022-11-20T12:49:26;0.50;99.90
27224;DHT22;14965;50.660;13.226;2022-11-20T12:52:16;0.50;99.90
27224;DHT22;14965;50.660;13.226;2022-11-20T12:55:21;0.50;99.90
27224;DHT22;14965;50.660;13.226;2022-11-20T12:57:58;0.50;99.90
27224;DHT22;14965;50.660;13.226;2022-11-20T13:00:31;0.40;99.90
27224;DHT22;14965;50.660;13.226;2022-11-20T13:03:14;0.40;99.90
27224;DHT22;14965;50.660;13.226;2022-11-20T13:05:59;0.40;99.90
27224;DHT22;14965;50.660;13.226;2022-11-20T13:08:37;0.40;99.90
27224;DHT22;14965;50.660;13.226;2022-11-20T13:11:12;0.40;99.90
27224;DHT22;14965;50.660;13.226;2022-11-20T13:14:04;0.40;99.90
27224;DHT22;14965;50.660;13.226;2022-11-20T13:17:00;0.40;99.90
27224;DHT22;14965;50.660;13.226;2022-11-20T13:19:33;0.40;99.90
27224;DHT22;14965;50.660;13.226;2022-11-20T13:22:00;0.50;99.90
27224;DHT22;14965;50.660;13.226;2022-11-20T13:24:29;0.50;99.90
27224;DHT22;14965;50.660;13.226;2022-11-20T13:27:04;0.50;99.90
27224;DHT22;14965;50.660;13.226;2022-11-20T13:30:10;0.50;99.90
27224;DHT22;14965;50.660;13.226;2022-11-20T13:32:47;0.60;99.90
27224;DHT22;14965;50.660;13.226;2022-11-20T13:35:24;0.60;99.90
27224;DHT22;14965;50.660;13.226;2022-11-20T13:38:04;0.60;99.90
27224;DHT22;14965;50.660;13.226;2022-11-20T13:40:33;0.60;99.90
27224;DHT22;14965;50.660;13.226;2022-11-20T13:43:10;0.60;99.90
27224;DHT22;14965;50.660;13.226;2022-11-20T13:45:54;0.60;99.90
27224;DHT22;14965;50.660;13.226;2022-11-20T13:48:23;0.60;99.90
27224;DHT22;14965;50.660;13.226;2022-11-20T13:51:03;0.60;99.90
27224;DHT22;14965;50.660;13.226;2022-11-20T13:54:10;0.60;99.90
27224;DHT22;14965;50.660;13.226;2022-11-20T13:56:58;0.50;99.90
27224;DHT22;14965;50.660;13.226;2022-11-20T13:59:42;0.50;99.90
27224;DHT22;14965;50.660;13.226;2022-11-20T14:02:20;0.50;99.90
27224;DHT22;14965;50.660;13.226;2022-11-20T14:04:50;0.50;99.90
27224;DHT22;14965;50.660;13.226;2022-11-20T14:07:22;0.40;99.90
27224;DHT22;14965;50.660;13.226;2022-11-20T14:09:52;0.40;99.90
27224;DHT22;14965;50.660;13.226;2022-11-20T14:12:23;0.40;99.90
27224;DHT22;14965;50.660;13.226;2022-11-20T14:14:54;0.40;99.90
27224;DHT22;14965;50.660;13.226;2022-11-20T14:17:23;0.40;99.90
27224;DHT22;14965;50.660;13.226;2022-11-20T14:19:51;0.40;99.90
27224;DHT22;14965;50.660;13.226;2022-11-20T14:22:21;0.40;99.90
27224;DHT22;14965;50.660;13.226;2022-11-20T14:25:00;0.40;99.90
27224;DHT22;14965;50.660;13.226;2022-11-20T14:27:33;0.30;99.90
27224;DHT22;14965;50.660;13.226;2022-11-20T14:30:03;0.30;99.90
27224;DHT22;14965;50.660;13.226;2022-11-20T14:32:30;0.30;99.90
27224;DHT22;14965;50.660;13.226;2022-11-20T14:35:07;0.30;99.90
27224;DHT22;14965;50.660;13.226;2022-11-20T14:37:37;0.40;99.90
27224;DHT22;14965;50.660;13.226;2022-11-20T14:40:22;0.40;99.90
27224;DHT22;14965;50.660;13.226;2022-11-20T14:42:53;0.40;99.90
27224;DHT22;14965;50.660;13.226;2022-11-20T14:45:19;0.40;99.90
27224;DHT22;14965;50.660;13.226;2022-11-20T14:47:46;0.40;99.90
27224;DHT22;14965;50.660;13.226;2022-11-20T14:50:17;0.30;99.90
27224;DHT22;14965;50.660;13.226;2022-11-20T14:52:54;0.30;99.90
27224;DHT22;14965;50.660;13.226;2022-11-20T14:55:30;0.20;99.90
27224;DHT22;14965;50.660;13.226;2022-11-20T14:58:01;0.20;99.90
27224;DHT22;14965;50.660;13.226;2022-11-20T15:00:30;0.10;99.90
27224;DHT22;14965;50.660;13.226;2022-11-20T15:02:57;0.20;99.90
27224;DHT22;14965;50.660;13.226;2022-11-20T15:05:25;0.20;99.90
27224;DHT22;14965;50.660;13.226;2022-11-20T15:08:09;0.20;99.90
27224;DHT22;14965;50.660;13.226;2022-11-20T15:10:36;0.20;99.90
27224;DHT22;14965;50.660;13.226;2022-11-20T15:13:06;0.20;99.90
27224;DHT22;14965;50.660;13.226;2022-11-20T15:15:43;0.20;99.90
27224;DHT22;14965;50.660;13.226;2022-11-20T15:18:13;0.20;99.90
27224;DHT22;14965;50.660;13.226;2022-11-20T15:20:41;0.10;99.90
27224;DHT22;14965;50.660;13.226;2022-11-20T15:23:10;0.10;99.90
27224;DHT22;14965;50.660;13.226;2022-11-20T15:25:38;0.10;99.90
27224;DHT22;14965;50.660;13.226;2022-11-20T15:28:13;0.10;99.90
27224;DHT22;14965;50.660;13.226;2022-11-20T15:30:43;0.00;99.90
27224;DHT22;14965;50.660;13.226;2022-11-20T15:33:10;0.00;99.90
27224;DHT22;14965;50.660;13.226;2022-11-20T15:35:36;-0.10;99.90
27224;DHT22;14965;50.660;13.226;2022-11-20T15:38:02;-0.10;99.90
27224;DHT22;14965;50.660;13.226;2022-11-20T15:40:28;-0.10;99.90
27224;DHT22;14965;50.660;13.226;2022-11-20T15:42:54;-0.10;99.90
27224;DHT22;14965;50.660;13.226;2022-11-20T15:45:29;-0.10;99.90
27224;DHT22;14965;50.660;13.226;2022-11-20T15:47:58;-0.10;99.90
27224;DHT22;14965;50.660;13.226;2022-11-20T15:50:27;-0.10;99.90
27224;DHT22;14965;50.660;13.226;2022-11-20T15:52:59;0.00;99.90
27224;DHT22;14965;50.660;13.226;2022-11-20T15:55:25;0.00;99.90
27224;DHT22;14965;50.660;13.226;2022-11-20T15:57:52;0.00;99.90
27224;DHT22;14965;50.660;13.226;2022-11-20T16:00:18;-0.10;99.90
27224;DHT22;14965;50.660;13.226;2022-11-20T16:02:46;-0.10;99.90
27224;DHT22;14965;50.660;13.226;2022-11-20T16:05:12;-0.10;99.90
27224;DHT22;14965;50.660;13.226;2022-11-20T16:07:40;-0.10;99.90
27224;DHT22;14965;50.660;13.226;2022-11-20T16:10:06;-0.10;99.90
27224;DHT22;14965;50.660;13.226;2022-11-20T16:12:33;-0.20;99.90
27224;DHT22;14965;50.660;13.226;2022-11-20T16:14:59;-0.20;99.90
27224;DHT22;14965;50.660;13.226;2022-11-20T16:17:25;-0.20;99.90
27224;DHT22;14965;50.660;13.226;2022-11-20T16:19:52;-0.30;99.90
27224;DHT22;14965;50.660;13.226;2022-11-20T16:22:18;-0.30;99.90
27224;DHT22;14965;50.660;13.226;2022-11-20T16:24:44;-0.20;99.90
27224;DHT22;14965;50.660;13.226;2022-11-20T16:27:10;-0.30;99.90
27224;DHT22;14965;50.660;13.226;2022-11-20T16:29:36;-0.30;99.90
27224;DHT22;14965;50.660;13.226;2022-11-20T16:32:02;-0.40;99.90
27224;DHT22;14965;50.660;13.226;2022-11-20T16:34:28;-0.50;99.90
27224;DHT22;14965;50.660;13.226;2022-11-20T16:36:55;-0.50;99.90
27224;DHT22;14965;50.660;13.226;2022-11-20T16:39:21;-0.50;99.90
27224;DHT22;14965;50.660;13.226;2022-11-20T16:41:47;-0.50;99.90
27224;DHT22;14965;50.660;13.226;2022-11-20T16:44:13;-0.50;99.90
27224;DHT22;14965;50.660;13.226;2022-11-20T16:46:38;-0.60;99.90
27224;DHT22;14965;50.660;13.226;2022-11-20T16:49:06;-0.60;99.90
27224;DHT22;14965;50.660;13.226;2022-11-20T16:51:36;-0.60;99.90
27224;DHT22;14965;50.660;13.226;2022-11-20T16:54:05;-0.60;99.90
27224;DHT22;14965;50.660;13.226;2022-11-20T16:56:32;-0.60;99.90
27224;DHT22;14965;50.660;13.226;2022-11-20T16:58:59;-0.70;99.90
27224;DHT22;14965;50.660;13.226;2022-11-20T17:01:27;-0.70;99.90
27224;DHT22;14965;50.660;13.226;2022-11-20T17:03:57;-0.70;99.90
27224;DHT22;14965;50.660;13.226;2022-11-20T17:06:25;-0.80;99.90
27224;DHT22;14965;50.660;13.226;2022-11-20T17:08:53;-0.80;99.90
27224;DHT22;14965;50.660;13.226;2022-11-20T17:11:21;-0.90;99.90
27224;DHT22;14965;50.660;13.226;2022-11-20T17:13:48;-1.00;99.90
27224;DHT22;14965;50.660;13.226;2022-11-20T17:16:15;-1.00;99.90
27224;DHT22;14965;50.660;13.226;2022-11-20T17:18:44;-1.10;99.90
27224;DHT22;14965;50.660;13.226;2022-11-20T17:21:11;-1.10;99.90
27224;DHT22;14965;50.660;13.226;2022-11-20T17:23:38;-1.10;99.90
27224;DHT22;14965;50.660;13.226;2022-11-20T17:26:06;-1.10;99.90
27224;DHT22;14965;50.660;13.226;2022-11-20T17:28:35;-1.10;99.90
27224;DHT22;14965;50.660;13.226;2022-11-20T17:31:03;-1.10;99.90
27224;DHT22;14965;50.660;13.226;2022-11-20T17:33:32;-1.10;99.90
27224;DHT22;14965;50.660;13.226;2022-11-20T17:35:59;-1.10;99.90
27224;DHT22;14965;50.660;13.226;2022-11-20T17:38:25;-1.10;99.90
27224;DHT22;14965;50.660;13.226;2022-11-20T17:40:51;-1.20;99.90
27224;DHT22;14965;50.660;13.226;2022-11-20T17:43:17;-1.20;99.90
27224;DHT22;14965;50.660;13.226;2022-11-20T17:45:45;-1.20;99.90
27224;DHT22;14965;50.660;13.226;2022-11-20T17:48:11;-1.20;99.90
27224;DHT22;14965;50.660;13.226;2022-11-20T17:50:37;-1.30;99.90
27224;DHT22;14965;50.660;13.226;2022-11-20T17:53:03;-1.30;99.90
27224;DHT22;14965;50.660;13.226;2022-11-20T17:55:29;-1.40;99.90
27224;DHT22;14965;50.660;13.226;2022-11-20T17:57:55;-1.50;99.90
27224;DHT22;14965;50.660;13.226;2022-11-20T18:00:21;-1.50;99.90
27224;DHT22;14965;50.660;13.226;2022-11-20T18:02:48;-1.50;99.90
27224;DHT22;14965;50.660;13.226;2022-11-20T18:05:15;-1.50;99.90
27224;DHT22;14965;50.660;13.226;2022-11-20T18:07:41;-1.50;99.90
27224;DHT22;14965;50.660;13.226;2022-11-20T18:10:08;-1.60;99.90
27224;DHT22;14965;50.660;13.226;2022-11-20T18:12:34;-1.60;99.90
27224;DHT22;14965;50.660;13.226;2022-11-20T18:15:00;-1.60;99.90
27224;DHT22;14965;50.660;13.226;2022-11-20T18:17:26;-1.70;99.90
27224;DHT22;14965;50.660;13.226;2022-11-20T18:19:53;-1.70;99.90
27224;DHT22;14965;50.660;13.226;2022-11-20T18:22:19;-1.80;99.90
27224;DHT22;14965;50.660;13.226;2022-11-20T18:24:45;-1.80;99.90
27224;DHT22;14965;50.660;13.226;2022-11-20T18:27:14;-1.80;99.90
27224;DHT22;14965;50.660;13.226;2022-11-20T18:29:42;-1.90;99.90
27224;DHT22;14965;50.660;13.226;2022-11-20T18:32:10;-1.90;99.90
27224;DHT22;14965;50.660;13.226;2022-11-20T18:34:36;-1.90;99.90
27224;DHT22;14965;50.660;13.226;2022-11-20T18:37:03;-1.90;99.90
27224;DHT22;14965;50.660;13.226;2022-11-20T18:39:29;-1.90;99.90
27224;DHT22;14965;50.660;13.226;2022-11-20T18:41:56;-1.90;99.90
27224;DHT22;14965;50.660;13.226;2022-11-20T18:44:24;-1.90;99.90
27224;DHT22;14965;50.660;13.226;2022-11-20T18:46:51;-1.90;99.90
27224;DHT22;14965;50.660;13.226;2022-11-20T18:49:17;-1.90;99.90
27224;DHT22;14965;50.660;13.226;2022-11-20T18:51:43;-1.90;99.90
27224;DHT22;14965;50.660;13.226;2022-11-20T18:54:11;-1.80;99.90
27224;DHT22;14965;50.660;13.226;2022-11-20T18:56:38;-1.80;99.90
27224;DHT22;14965;50.660;13.226;2022-11-20T18:59:06;-1.70;99.90
27224;DHT22;14965;50.660;13.226;2022-11-20T19:01:33;-1.70;99.90
27224;DHT22;14965;50.660;13.226;2022-11-20T19:04:00;-1.60;99.90
27224;DHT22;14965;50.660;13.226;2022-11-20T19:06:30;-1.50;99.90
27224;DHT22;14965;50.660;13.226;2022-11-20T19:08:56;-1.40;99.90
27224;DHT22;14965;50.660;13.226;2022-11-20T19:11:24;-1.30;99.90
27224;DHT22;14965;50.660;13.226;2022-11-20T19:13:50;-1.20;99.90
27224;DHT22;14965;50.660;13.226;2022-11-20T19:16:17;-1.20;99.90
27224;DHT22;14965;50.660;13.226;2022-11-20T19:18:44;-1.10;99.90
27224;DHT22;14965;50.660;13.226;2022-11-20T19:21:12;-1.00;99.90
27224;DHT22;14965;50.660;13.226;2022-11-20T19:23:40;-0.90;99.90
27224;DHT22;14965;50.660;13.226;2022-11-20T19:26:06;-0.90;99.90
27224;DHT22;14965;50.660;13.226;2022-11-20T19:28:35;-0.80;99.90
27224;DHT22;14965;50.660;13.226;2022-11-20T19:31:02;-0.80;99.90
27224;DHT22;14965;50.660;13.226;2022-11-20T19:33:29;-0.80;99.90
27224;DHT22;14965;50.660;13.226;2022-11-20T19:35:56;-0.80;99.90
27224;DHT22;14965;50.660;13.226;2022-11-20T19:38:22;-0.70;99.90
27224;DHT22;14965;50.660;13.226;2022-11-20T19:40:48;-0.70;99.90
27224;DHT22;14965;50.660;13.226;2022-11-20T19:43:15;-0.70;99.90
27224;DHT22;14965;50.660;13.226;2022-11-20T19:45:43;-0.70;99.90
27224;DHT22;14965;50.660;13.226;2022-11-20T19:48:09;-0.80;99.90
27224;DHT22;14965;50.660;13.226;2022-11-20T19:50:35;-0.90;99.90
27224;DHT22;14965;50.660;13.226;2022-11-20T19:53:01;-0.90;99.90
27224;DHT22;14965;50.660;13.226;2022-11-20T19:55:27;-0.90;99.90
27224;DHT22;14965;50.660;13.226;2022-11-20T19:57:53;-1.00;99.90
27224;DHT22;14965;50.660;13.226;2022-11-20T20:00:19;-1.00;99.90
27224;DHT22;14965;50.660;13.226;2022-11-20T20:02:46;-0.90;99.90
27224;DHT22;14965;50.660;13.226;2022-11-20T20:05:12;-1.00;99.90
27224;DHT22;14965;50.660;13.226;2022-11-20T20:07:38;-1.00;99.90
27224;DHT22;14965;50.660;13.226;2022-11-20T20:10:05;-1.00;99.90
27224;DHT22;14965;50.660;13.226;2022-11-20T20:12:31;-1.00;99.90
27224;DHT22;14965;50.660;13.226;2022-11-20T20:14:57;-1.00;99.90
27224;DHT22;14965;50.660;13.226;2022-11-20T20:17:23;-1.00;99.90
27224;DHT22;14965;50.660;13.226;2022-11-20T20:19:50;-1.10;99.90
27224;DHT22;14965;50.660;13.226;2022-11-20T20:22:16;-1.00;99.90
27224;DHT22;14965;50.660;13.226;2022-11-20T20:24:42;-1.00;99.90
27224;DHT22;14965;50.660;13.226;2022-11-20T20:27:08;-1.00;99.90
27224;DHT22;14965;50.660;13.226;2022-11-20T20:29:34;-0.90;99.90
27224;DHT22;14965;50.660;13.226;2022-11-20T20:32:00;-0.90;99.90
27224;DHT22;14965;50.660;13.226;2022-11-20T20:34:26;-0.90;99.90
27224;DHT22;14965;50.660;13.226;2022-11-20T20:36:53;-0.80;99.90
27224;DHT22;14965;50.660;13.226;2022-11-20T20:39:19;-0.70;99.90
27224;DHT22;14965;50.660;13.226;2022-11-20T20:41:45;-0.70;99.90
27224;DHT22;14965;50.660;13.226;2022-11-20T20:44:11;-0.60;99.90